createdAt,value
2023-12-08T00:00:34.721Z,10.43
2023-12-08T00:03:01.196Z,5.13
2023-12-08T00:05:27.592Z,7.45
2023-12-08T00:07:53.963Z,6.72
2023-12-08T00:10:20.374Z,7.13
2023-12-08T00:12:46.951Z,7.47
2023-12-08T00:15:13.510Z,7.72
2023-12-08T00:17:39.904Z,6.47
2023-12-08T00:20:07.769Z,8.90
2023-12-08T00:22:34.402Z,8.02
2023-12-08T00:25:02.654Z,5.43
2023-12-08T00:27:31.929Z,5.63
2023-12-08T00:29:58.369Z,6.43
2023-12-08T00:32:25.601Z,7.32
2023-12-08T00:34:52.000Z,6.47
2023-12-08T00:37:18.483Z,9.00
2023-12-08T00:39:44.860Z,8.73
2023-12-08T00:42:11.298Z,5.85
2023-12-08T00:44:38.160Z,9.32
2023-12-08T00:47:05.583Z,7.80
2023-12-08T00:49:32.124Z,5.88
2023-12-08T00:51:58.572Z,6.25
2023-12-08T00:54:24.925Z,6.47
2023-12-08T00:56:51.369Z,6.32
2023-12-08T00:59:17.824Z,8.80
2023-12-08T01:01:44.272Z,6.32
2023-12-08T01:04:10.746Z,5.75
2023-12-08T01:06:39.583Z,7.60
2023-12-08T01:09:06.057Z,6.85
2023-12-08T01:11:32.511Z,5.65
2023-12-08T01:13:58.921Z,6.32
2023-12-08T01:16:25.336Z,7.15
2023-12-08T01:18:51.908Z,8.18
2023-12-08T01:21:18.475Z,8.77
2023-12-08T01:23:44.910Z,11.63
2023-12-08T01:26:11.281Z,9.13
2023-12-08T01:28:37.733Z,5.43
2023-12-08T01:31:04.690Z,7.78
2023-12-08T01:33:31.509Z,7.38
2023-12-08T01:36:37.632Z,8.32
2023-12-08T01:38:47.588Z,7.68
2023-12-08T01:41:17.250Z,6.80
2023-12-08T01:43:44.334Z,9.52
2023-12-08T01:46:15.230Z,7.78
2023-12-08T01:48:43.395Z,6.22
2023-12-08T01:51:12.269Z,6.68
2023-12-08T01:53:40.193Z,7.25
2023-12-08T01:56:08.453Z,5.97
2023-12-08T01:58:35.787Z,7.07
2023-12-08T02:01:06.051Z,6.13
2023-12-08T02:03:36.451Z,9.32
2023-12-08T02:06:03.196Z,8.57
2023-12-08T02:08:30.276Z,5.57
2023-12-08T02:10:56.702Z,10.10
2023-12-08T02:13:23.705Z,10.35
2023-12-08T02:15:58.160Z,8.02
2023-12-08T02:18:29.549Z,10.95
2023-12-08T02:20:56.290Z,9.60
2023-12-08T02:23:22.693Z,7.35
2023-12-08T02:25:49.072Z,9.70
2023-12-08T02:28:15.471Z,9.23
2023-12-08T02:30:41.945Z,8.90
2023-12-08T02:33:09.387Z,7.85
2023-12-08T02:35:42.039Z,9.02
2023-12-08T02:38:11.094Z,9.02
2023-12-08T02:40:37.547Z,7.75
2023-12-08T02:43:04.665Z,5.75
2023-12-08T02:45:31.113Z,5.10
2023-12-08T02:47:57.720Z,5.63
2023-12-08T02:50:24.188Z,6.95
2023-12-08T02:52:52.486Z,7.32
2023-12-08T02:55:19.122Z,8.73
2023-12-08T02:57:45.470Z,5.60
2023-12-08T03:00:46.083Z,8.02
2023-12-08T03:03:12.775Z,11.43
2023-12-08T03:05:39.267Z,5.78
2023-12-08T03:08:05.673Z,6.18
2023-12-08T03:10:32.122Z,5.57
2023-12-08T03:12:58.880Z,10.40
2023-12-08T03:15:25.284Z,7.30
2023-12-08T03:17:51.683Z,10.27
2023-12-08T03:20:18.204Z,9.15
2023-12-08T03:22:44.662Z,9.88
2023-12-08T03:25:11.185Z,7.53
2023-12-08T03:27:37.518Z,10.13
2023-12-08T03:30:04.349Z,8.75
2023-12-08T03:32:32.008Z,10.50
2023-12-08T03:34:59.359Z,6.88
2023-12-08T03:37:26.136Z,7.25
2023-12-08T03:39:52.621Z,6.65
2023-12-08T03:42:19.078Z,11.77
2023-12-08T03:44:45.557Z,11.02
2023-12-08T03:47:11.964Z,6.40
2023-12-08T03:49:38.467Z,10.98
2023-12-08T03:52:05.103Z,10.85
2023-12-08T03:54:31.532Z,10.80
2023-12-08T03:57:01.034Z,10.65
2023-12-08T03:59:27.446Z,7.22
2023-12-08T04:01:54.404Z,10.38
2023-12-08T04:04:26.270Z,6.55
2023-12-08T04:06:55.476Z,7.70
2023-12-08T04:09:21.878Z,8.48
2023-12-08T04:11:48.446Z,9.43
2023-12-08T04:14:15.017Z,12.73
2023-12-08T04:16:41.769Z,8.73
2023-12-08T04:19:08.299Z,10.63
2023-12-08T04:21:34.818Z,6.28
2023-12-08T04:24:01.243Z,8.77
2023-12-08T04:26:27.648Z,12.27
2023-12-08T04:28:54.622Z,7.78
2023-12-08T04:31:21.884Z,6.63
2023-12-08T04:33:49.520Z,7.32
2023-12-08T04:36:16.255Z,6.53
2023-12-08T04:38:42.711Z,6.00
2023-12-08T04:41:09.305Z,7.32
2023-12-08T04:43:35.788Z,6.20
2023-12-08T04:46:02.221Z,9.60
2023-12-08T04:48:28.799Z,8.25
2023-12-08T04:50:55.607Z,9.48
2023-12-08T04:53:22.019Z,11.73
2023-12-08T04:55:48.402Z,9.52
2023-12-08T04:58:14.862Z,7.45
2023-12-08T05:00:41.287Z,9.35
2023-12-08T05:03:08.471Z,8.52
2023-12-08T05:05:35.185Z,8.70
2023-12-08T05:08:01.644Z,8.68
2023-12-08T05:10:28.042Z,9.77
2023-12-08T05:12:54.452Z,9.15
2023-12-08T05:15:21.070Z,10.40
2023-12-08T05:17:47.668Z,11.93
2023-12-08T05:20:14.280Z,10.18
2023-12-08T05:22:40.830Z,9.95
2023-12-08T05:25:09.216Z,10.95
2023-12-08T05:27:36.182Z,10.82
2023-12-08T05:30:02.743Z,9.23
2023-12-08T05:32:31.026Z,9.75
2023-12-08T05:34:57.449Z,8.32
2023-12-08T05:37:24.260Z,11.95
2023-12-08T05:39:52.065Z,12.18
2023-12-08T05:42:18.630Z,10.73
2023-12-08T05:44:45.030Z,5.80
2023-12-08T05:47:11.510Z,9.27
2023-12-08T05:49:38.009Z,10.07
2023-12-08T05:52:04.928Z,9.18
2023-12-08T05:54:31.401Z,6.68
2023-12-08T05:56:59.619Z,10.38
2023-12-08T05:59:28.877Z,10.70
2023-12-08T06:01:55.228Z,11.60
2023-12-08T06:04:21.766Z,8.40
2023-12-08T06:06:49.181Z,9.15
2023-12-08T06:09:15.772Z,9.93
2023-12-08T06:11:42.456Z,7.60
2023-12-08T06:14:10.180Z,11.35
2023-12-08T06:16:37.474Z,11.55
2023-12-08T06:19:05.736Z,10.00
2023-12-08T06:21:32.239Z,11.32
2023-12-08T06:24:00.497Z,8.43
2023-12-08T06:26:30.471Z,9.80
2023-12-08T06:28:56.906Z,12.90
2023-12-08T06:31:26.616Z,11.48
2023-12-08T06:36:31.677Z,11.05
2023-12-08T06:38:58.139Z,8.32
2023-12-08T06:41:24.544Z,10.43
2023-12-08T06:43:50.893Z,8.40
2023-12-08T06:46:17.341Z,10.07
2023-12-08T06:48:43.858Z,7.88
2023-12-08T06:51:10.409Z,7.32
2023-12-08T06:53:37.549Z,7.63
2023-12-08T06:56:06.845Z,10.10
2023-12-08T06:58:34.552Z,9.52
2023-12-08T07:01:01.317Z,7.72
2023-12-08T07:03:28.503Z,6.75
2023-12-08T07:05:55.041Z,11.02
2023-12-08T07:08:21.482Z,10.68
2023-12-08T07:10:47.860Z,12.20
2023-12-08T07:13:14.247Z,10.23
2023-12-08T07:15:40.672Z,9.77
2023-12-08T07:18:07.208Z,9.32
2023-12-08T07:20:35.397Z,7.43
2023-12-08T07:23:02.649Z,10.70
2023-12-08T07:25:29.060Z,8.70
2023-12-08T07:27:55.465Z,8.02
2023-12-08T07:30:21.983Z,7.97
2023-12-08T07:32:49.729Z,9.43
2023-12-08T07:35:17.424Z,8.10
2023-12-08T07:37:43.808Z,8.45
2023-12-08T07:40:10.755Z,10.27
2023-12-08T07:42:37.881Z,6.60
2023-12-08T07:45:08.326Z,9.30
2023-12-08T07:47:34.954Z,8.38
2023-12-08T07:50:04.469Z,8.52
2023-12-08T07:52:32.559Z,5.75
2023-12-08T07:54:59.062Z,7.93
2023-12-08T07:57:29.564Z,6.65
2023-12-08T08:00:00.347Z,7.97
2023-12-08T08:02:26.972Z,5.90
2023-12-08T08:04:53.935Z,8.85
2023-12-08T08:07:20.367Z,6.97
2023-12-08T08:09:46.761Z,6.85
2023-12-08T08:12:13.492Z,7.63
2023-12-08T08:14:43.455Z,9.13
2023-12-08T08:17:12.828Z,8.25
2023-12-08T08:19:42.985Z,12.23
2023-12-08T08:22:29.025Z,7.10
2023-12-08T08:24:58.772Z,7.55
2023-12-08T08:27:26.486Z,8.73
2023-12-08T08:29:53.192Z,9.27
2023-12-08T08:32:19.671Z,8.48
2023-12-08T08:34:46.159Z,9.70
2023-12-08T08:37:12.784Z,8.82
2023-12-08T08:39:42.092Z,12.38
2023-12-08T08:42:08.599Z,8.88
2023-12-08T08:44:35.139Z,8.80
2023-12-08T08:47:01.549Z,9.05
2023-12-08T08:49:28.222Z,11.73
2023-12-08T08:51:54.731Z,9.32
2023-12-08T08:54:21.118Z,9.75
2023-12-08T08:56:47.803Z,11.38
2023-12-08T08:59:14.340Z,13.00
2023-12-08T09:01:41.553Z,9.02
2023-12-08T09:04:08.710Z,10.27
2023-12-08T09:06:35.344Z,10.55
2023-12-08T09:09:01.896Z,11.85
2023-12-08T09:11:31.363Z,8.68
2023-12-08T09:13:57.802Z,7.38
2023-12-08T09:16:24.209Z,12.38
2023-12-08T09:18:50.730Z,10.63
2023-12-08T09:21:17.873Z,9.25
2023-12-08T09:23:46.834Z,9.25
2023-12-08T09:26:13.370Z,5.97
2023-12-08T09:28:39.849Z,7.63
2023-12-08T09:31:07.459Z,8.77
2023-12-08T09:33:34.099Z,10.93
2023-12-08T09:36:00.942Z,12.18
2023-12-08T09:38:33.340Z,11.23
2023-12-08T09:41:05.113Z,12.85
2023-12-08T09:43:58.010Z,11.10
2023-12-08T09:46:26.959Z,11.93
2023-12-08T09:49:00.049Z,9.40
2023-12-08T09:51:27.904Z,10.20
2023-12-08T09:53:54.507Z,9.73
2023-12-08T09:56:22.750Z,12.70
2023-12-08T09:58:49.912Z,10.65
2023-12-08T10:01:18.264Z,11.68
2023-12-08T10:03:45.166Z,11.30
2023-12-08T10:06:12.060Z,12.38
2023-12-08T10:08:38.604Z,13.98
2023-12-08T10:11:07.047Z,8.73
2023-12-08T10:13:34.073Z,9.75
2023-12-08T10:16:01.241Z,10.75
2023-12-08T10:18:31.163Z,12.35
2023-12-08T10:21:17.642Z,11.38
2023-12-08T10:23:45.758Z,7.57
2023-12-08T10:26:17.366Z,13.23
2023-12-08T10:28:44.115Z,10.07
2023-12-08T10:31:10.760Z,10.90
2023-12-08T10:33:37.262Z,12.30
2023-12-08T10:36:04.303Z,16.02
2023-12-08T10:38:35.235Z,11.98
2023-12-08T10:41:03.437Z,8.57
2023-12-08T10:43:30.376Z,11.60
2023-12-08T10:45:59.737Z,11.77
2023-12-08T10:48:29.067Z,12.02
2023-12-08T10:51:00.061Z,15.65
2023-12-08T10:53:27.250Z,12.95
2023-12-08T10:56:10.629Z,12.15
2023-12-08T10:58:41.060Z,10.98
2023-12-08T11:01:13.874Z,13.60
2023-12-08T11:03:43.704Z,10.73
2023-12-08T11:06:21.362Z,10.35
2023-12-08T11:08:50.524Z,9.43
2023-12-08T11:11:17.599Z,11.02
2023-12-08T11:13:52.869Z,12.63
2023-12-08T11:16:39.451Z,12.35
2023-12-08T11:19:07.956Z,11.20
2023-12-08T11:21:35.809Z,11.38
2023-12-08T11:24:02.534Z,12.00
2023-12-08T11:26:50.415Z,10.52
2023-12-08T11:30:02.965Z,10.82
2023-12-08T11:32:55.483Z,9.30
2023-12-08T11:35:22.504Z,10.27
2023-12-08T11:37:48.869Z,10.45
2023-12-08T11:40:17.794Z,12.25
2023-12-08T11:42:46.779Z,9.32
2023-12-08T11:45:13.743Z,14.57
2023-12-08T11:47:43.084Z,13.07
2023-12-08T11:50:12.147Z,10.77
2023-12-08T11:52:39.086Z,11.27
2023-12-08T11:55:31.124Z,12.30
2023-12-08T11:58:04.547Z,16.00
2023-12-08T12:02:59.690Z,9.10
2023-12-08T12:05:29.875Z,11.43
2023-12-08T12:07:58.634Z,12.93
2023-12-08T12:10:33.800Z,9.57
2023-12-08T12:13:13.915Z,10.50
2023-12-08T12:15:42.223Z,11.07
2023-12-08T12:18:11.192Z,13.80
2023-12-08T12:20:41.796Z,14.18
2023-12-08T12:23:08.287Z,9.73
2023-12-08T12:25:34.741Z,10.25
2023-12-08T12:28:01.309Z,7.68
2023-12-08T12:30:28.376Z,13.68
2023-12-08T12:32:55.205Z,9.60
2023-12-08T12:35:21.973Z,10.60
2023-12-08T12:37:48.443Z,12.40
2023-12-08T12:40:14.945Z,11.07
2023-12-08T12:42:46.322Z,9.75
2023-12-08T12:45:26.877Z,13.65
2023-12-08T12:48:04.663Z,15.73
2023-12-08T12:50:32.970Z,11.52
2023-12-08T12:53:06.898Z,10.00
2023-12-08T12:55:33.541Z,11.60
2023-12-08T12:58:00.084Z,11.63
2023-12-08T13:00:36.956Z,11.70
2023-12-08T13:03:11.676Z,11.73
2023-12-08T13:05:52.257Z,10.30
2023-12-08T13:08:20.432Z,9.70
2023-12-08T13:10:48.107Z,12.13
2023-12-08T13:13:14.611Z,11.23
2023-12-08T13:15:42.182Z,11.02
2023-12-08T13:18:09.439Z,10.75
2023-12-08T13:20:36.751Z,8.77
2023-12-08T13:23:03.482Z,12.98
2023-12-08T13:25:30.000Z,12.73
2023-12-08T13:27:56.664Z,8.60
2023-12-08T13:30:23.318Z,10.75
2023-12-08T13:32:49.980Z,10.05
2023-12-08T13:35:16.530Z,13.02
2023-12-08T13:37:43.218Z,11.10
2023-12-08T13:40:12.940Z,12.38
2023-12-08T13:42:40.373Z,10.77
2023-12-08T13:45:07.908Z,11.27
2023-12-08T13:47:34.353Z,12.65
2023-12-08T13:50:00.848Z,10.77
2023-12-08T13:52:27.195Z,10.80
2023-12-08T13:54:53.611Z,8.52
2023-12-08T13:57:20.002Z,9.93
2023-12-08T13:59:46.937Z,11.00
2023-12-08T14:02:13.466Z,11.27
2023-12-08T14:04:40.507Z,10.20
2023-12-08T14:07:07.077Z,9.07
2023-12-08T14:09:33.658Z,11.10
2023-12-08T14:12:00.407Z,9.65
2023-12-08T14:14:27.175Z,11.00
2023-12-08T14:16:53.532Z,11.80
2023-12-08T14:19:20.154Z,12.43
2023-12-08T14:21:46.618Z,9.63
2023-12-08T14:24:13.093Z,12.00
2023-12-08T14:26:41.793Z,11.05
2023-12-08T14:29:08.278Z,10.63
2023-12-08T14:31:34.761Z,10.43
2023-12-08T14:34:01.746Z,9.57
2023-12-08T14:36:28.292Z,8.55
2023-12-08T14:38:54.787Z,9.52
2023-12-08T14:41:21.623Z,10.95
2023-12-08T14:43:48.045Z,11.05
2023-12-08T14:46:18.664Z,10.18
2023-12-08T14:48:45.262Z,12.45
2023-12-08T14:51:22.166Z,12.63
2023-12-08T14:53:48.750Z,10.10
2023-12-08T14:56:17.038Z,10.75
2023-12-08T14:58:44.278Z,9.07
2023-12-08T15:01:19.083Z,13.60
2023-12-08T15:03:46.500Z,10.57
2023-12-08T15:06:15.025Z,10.43
2023-12-08T15:08:42.175Z,14.13
2023-12-08T15:11:08.840Z,11.13
2023-12-08T15:13:38.176Z,12.73
2023-12-08T15:16:05.309Z,9.40
2023-12-08T15:18:35.066Z,12.93
2023-12-08T15:21:01.728Z,8.98
2023-12-08T15:23:33.877Z,10.10
2023-12-08T15:26:01.371Z,8.88
2023-12-08T15:28:27.884Z,10.15
2023-12-08T15:30:54.592Z,9.68
2023-12-08T15:33:21.705Z,10.20
2023-12-08T15:35:51.325Z,10.30
2023-12-08T15:38:17.711Z,11.10
2023-12-08T15:40:44.178Z,8.27
2023-12-08T15:43:10.675Z,10.75
2023-12-08T15:45:37.563Z,14.50
2023-12-08T15:48:04.553Z,11.00
2023-12-08T15:50:31.119Z,13.38
2023-12-08T15:52:57.479Z,9.75
2023-12-08T15:55:25.630Z,11.35
2023-12-08T15:57:53.171Z,13.15
2023-12-08T16:00:19.677Z,10.27
2023-12-08T16:02:46.091Z,9.63
2023-12-08T16:05:12.881Z,10.35
2023-12-08T16:07:39.300Z,10.32
2023-12-08T16:10:06.074Z,13.23
2023-12-08T16:12:32.924Z,10.90
2023-12-08T16:14:59.520Z,10.82
2023-12-08T16:17:28.511Z,10.65
2023-12-08T16:19:55.044Z,11.63
2023-12-08T16:22:21.468Z,11.32
2023-12-08T16:24:48.169Z,12.30
2023-12-08T16:27:14.827Z,11.50
2023-12-08T16:29:45.789Z,13.80
2023-12-08T16:32:12.873Z,13.63
2023-12-08T16:34:39.358Z,11.70
2023-12-08T16:37:05.850Z,10.68
2023-12-08T16:39:33.023Z,14.40
2023-12-08T16:41:59.476Z,12.93
2023-12-08T16:44:25.878Z,10.77
2023-12-08T16:46:52.411Z,12.77
2023-12-08T16:49:19.056Z,13.23
2023-12-08T16:51:45.531Z,15.98
2023-12-08T16:54:12.001Z,13.90
2023-12-08T16:56:38.510Z,16.25
2023-12-08T16:59:05.135Z,14.05
2023-12-08T17:01:34.048Z,15.43
2023-12-08T17:04:00.840Z,14.43
2023-12-08T17:06:28.130Z,12.30
2023-12-08T17:08:54.591Z,13.30
2023-12-08T17:11:20.995Z,12.13
2023-12-08T17:13:47.381Z,11.18
2023-12-08T17:16:14.516Z,14.90
2023-12-08T17:18:41.216Z,19.20
2023-12-08T17:21:07.801Z,15.93
2023-12-08T17:23:34.745Z,13.98
2023-12-08T17:26:01.172Z,13.73
2023-12-08T17:28:27.570Z,12.48
2023-12-08T17:30:54.564Z,13.20
2023-12-08T17:33:22.020Z,10.02
2023-12-08T17:35:49.183Z,13.88
2023-12-08T17:38:16.912Z,14.35
2023-12-08T17:40:44.470Z,12.15
2023-12-08T17:43:11.891Z,18.92
2023-12-08T17:45:39.022Z,10.90
2023-12-08T17:48:06.761Z,11.70
2023-12-08T17:50:33.464Z,14.07
2023-12-08T17:52:59.930Z,15.02
2023-12-08T17:55:26.352Z,16.35
2023-12-08T17:57:53.365Z,14.10
2023-12-08T18:00:20.223Z,13.88
2023-12-08T18:02:50.725Z,13.88
2023-12-08T18:05:19.491Z,12.98
2023-12-08T18:07:45.952Z,15.27
2023-12-08T18:10:12.349Z,16.45
2023-12-08T18:12:39.347Z,13.07
2023-12-08T18:15:06.523Z,11.95
2023-12-08T18:17:33.469Z,12.13
2023-12-08T18:20:01.012Z,14.32
2023-12-08T18:22:29.046Z,12.65
2023-12-08T18:24:55.955Z,12.50
2023-12-08T18:27:34.165Z,11.10
2023-12-08T18:30:09.200Z,11.10
2023-12-08T18:32:35.695Z,11.82
2023-12-08T18:35:02.125Z,12.73
2023-12-08T18:37:28.531Z,11.55
2023-12-08T18:39:56.236Z,15.40
2023-12-08T18:42:22.832Z,12.65
2023-12-08T18:44:49.343Z,17.20
2023-12-08T18:47:20.855Z,14.95
2023-12-08T18:49:47.520Z,13.15
2023-12-08T18:52:13.928Z,13.52
2023-12-08T18:54:43.280Z,13.32
2023-12-08T18:57:09.706Z,13.60
2023-12-08T18:59:39.092Z,13.43
2023-12-08T19:02:06.355Z,13.15
2023-12-08T19:04:35.948Z,11.60
2023-12-08T19:07:05.581Z,13.85
2023-12-08T19:09:32.601Z,12.65
2023-12-08T19:12:03.207Z,13.30
2023-12-08T19:14:30.776Z,15.82
2023-12-08T19:16:58.179Z,14.90
2023-12-08T19:19:26.162Z,14.93
2023-12-08T19:21:53.239Z,15.25
2023-12-08T19:24:19.661Z,14.52
2023-12-08T19:26:46.037Z,14.85
2023-12-08T19:29:12.532Z,15.65
2023-12-08T19:31:38.953Z,13.45
2023-12-08T19:34:05.615Z,12.00
2023-12-08T19:36:32.087Z,14.65
2023-12-08T19:39:00.693Z,17.95
2023-12-08T19:41:27.824Z,13.75
2023-12-08T19:43:54.291Z,14.43
2023-12-08T19:46:20.686Z,14.75
2023-12-08T19:48:47.680Z,15.05
2023-12-08T19:51:14.479Z,15.82
2023-12-08T19:53:40.854Z,16.85
2023-12-08T19:56:07.644Z,12.82
2023-12-08T19:58:36.519Z,19.20
2023-12-08T20:01:03.140Z,14.27
2023-12-08T20:03:29.670Z,12.98
2023-12-08T20:05:56.552Z,13.00
2023-12-08T20:08:23.040Z,14.63
2023-12-08T20:10:49.937Z,13.20
2023-12-08T20:13:16.355Z,14.30
2023-12-08T20:15:44.077Z,15.40
2023-12-08T20:18:10.712Z,15.00
2023-12-08T20:20:37.167Z,15.18
2023-12-08T20:23:03.582Z,14.30
2023-12-08T20:25:30.883Z,15.95
2023-12-08T20:27:57.295Z,14.77
2023-12-08T20:30:23.698Z,15.60
2023-12-08T20:32:50.999Z,11.07
2023-12-08T20:35:17.572Z,12.73
2023-12-08T20:37:43.942Z,17.80
2023-12-08T20:40:10.824Z,13.43
2023-12-08T20:42:37.328Z,15.60
2023-12-08T20:45:04.158Z,14.50
2023-12-08T20:47:31.175Z,12.90
2023-12-08T20:50:00.724Z,14.93
2023-12-08T20:52:27.461Z,13.80
2023-12-08T20:54:56.984Z,14.77
2023-12-08T20:57:23.537Z,16.02
2023-12-08T20:59:50.340Z,16.90
2023-12-08T21:05:12.878Z,18.15
2023-12-08T21:07:40.316Z,15.73
2023-12-08T21:10:08.063Z,13.05
2023-12-08T21:12:37.731Z,16.80
2023-12-08T21:15:05.318Z,15.15
2023-12-08T21:17:31.882Z,15.32
2023-12-08T21:19:58.444Z,15.10
2023-12-08T21:22:24.883Z,16.15
2023-12-08T21:24:51.329Z,14.13
2023-12-08T21:27:17.754Z,14.90
2023-12-08T21:29:54.129Z,15.82
2023-12-08T21:32:21.389Z,13.40
2023-12-08T21:34:48.029Z,14.63
2023-12-08T21:37:14.753Z,15.85
2023-12-08T21:39:41.129Z,15.75
2023-12-08T21:42:07.586Z,15.30
2023-12-08T21:44:34.075Z,14.65
2023-12-08T21:47:00.640Z,16.90
2023-12-08T21:49:27.199Z,16.63
2023-12-08T21:51:53.713Z,14.88
2023-12-08T21:54:20.291Z,17.08
2023-12-08T21:56:46.652Z,14.88
2023-12-08T21:59:13.158Z,14.52
2023-12-08T22:01:44.830Z,16.05
2023-12-08T22:04:14.850Z,16.30
2023-12-08T22:06:41.915Z,13.93
2023-12-08T22:09:09.904Z,15.20
2023-12-08T22:11:36.303Z,15.60
2023-12-08T22:14:02.816Z,14.50
2023-12-08T22:16:29.281Z,18.63
2023-12-08T22:18:55.846Z,18.13
2023-12-08T22:21:22.416Z,16.13
2023-12-08T22:23:49.077Z,14.88
2023-12-08T22:26:15.728Z,14.93
2023-12-08T22:28:43.099Z,13.75
2023-12-08T22:31:10.678Z,16.70
2023-12-08T22:33:40.386Z,14.43
2023-12-08T22:36:08.308Z,14.80
2023-12-08T22:38:34.778Z,16.90
2023-12-08T22:41:01.168Z,16.33
2023-12-08T22:43:27.717Z,13.38
2023-12-08T22:45:54.086Z,12.27
2023-12-08T22:48:20.641Z,13.40
2023-12-08T22:50:50.391Z,18.13
2023-12-08T22:53:19.358Z,13.20
2023-12-08T22:55:45.799Z,15.40
2023-12-08T22:58:12.220Z,14.07
2023-12-08T23:00:38.768Z,14.95
2023-12-08T23:03:05.759Z,14.63
2023-12-08T23:05:33.549Z,12.63
2023-12-08T23:08:00.458Z,14.20
2023-12-08T23:10:26.824Z,14.32
2023-12-08T23:12:53.231Z,14.50
2023-12-08T23:15:19.839Z,13.82
2023-12-08T23:17:50.411Z,12.65
2023-12-08T23:20:16.949Z,14.10
2023-12-08T23:22:44.603Z,14.40
2023-12-08T23:25:11.106Z,15.52
2023-12-08T23:27:41.457Z,13.48
2023-12-08T23:30:08.628Z,12.73
2023-12-08T23:32:35.267Z,14.00
2023-12-08T23:35:04.884Z,12.15
2023-12-08T23:37:33.331Z,12.88
2023-12-08T23:40:05.041Z,15.52
2023-12-08T23:42:31.671Z,16.35
2023-12-08T23:44:58.241Z,15.43
2023-12-08T23:47:24.827Z,13.95
2023-12-08T23:49:51.448Z,11.43
2023-12-08T23:52:17.874Z,12.57
2023-12-08T23:54:45.239Z,12.45
2023-12-08T23:57:11.740Z,12.32
2023-12-08T23:59:38.303Z,13.43
